Gimpo International Airport

Airport
ICAO code: 
RKSS
IATA Code: 
GMP
Summary
ICAO Region: 
APAC
Territory: 
Location: 
Seoul, Seoul National Capital Area
Serving: 
Seoul
Elevation: 
58 ft
Coordinates: 
Aerial View: 
37° 33' 30.281" N, 126° 47' 29.799" E
Metar
Observation
RKSS 250800Z 29009KT 9999 BKN045 BKN100 05/M02 Q1020 NOSIG
Station
Seoul / Kimp'O International Airport
Date/Time
2022-01-25 08:00:00
Wind direction
290°
Wind speed
09 kts
Lowest cloud amount
broken clouds
Temperature
5°C
Dew point
-2°C
Humidity
60%
QNH
1020 hPa
Weather condition
n/a

An international airport serving Seoul, South Korea but note that the main airport is Incheon.

Climatology

Warm continental climate/Humid continental climate/Humid subtropical climate (Köppen climate classification Dwa/Cwa)

Runways

Designator Length Width Surface Rops
14R/32L 3200 60 ASP Yes/Yes
14L/32R 3600 45 ASP Yes/Yes
Airport map: 
Aerial View: 

SKYbrary Partners:

Safety knowledge contributed by: